BE1331 / G-PRPK 7700 Squawk Report (22nd of July, 2019)

Aircraft DH8D Reg No. G-PRPK Age N/A
Model DHC-8 Turboprop engines 2 First flight N/A
Registered 06-02-17 Rollout N/A Delivered 23-04-08
Construction No. 4203 Line No. N/A Series Q-402
ADSHEX 407299 Airline name FlyBE Owner N/A
Airfield based Exeter~Devon~G First tracked 2017-07-13 06:24:00

Flight history for G-PRPK

Route Flight No Date Playback
Birmingham (BHX) - Biarritz-Pays Basque (BIQ) BE1433 2019-08-20 10:09:00
Dyce (ABZ) - Birmingham (BHX) BE321 2019-08-20 07:15:00
Heathrow (LHR) - Dyce (ABZ) BE2126 2019-08-19 18:37:00
Glasgow (GLA) - East Midlands Airport (EMA) BE1537 2019-08-19 16:14:00
Belfast City (BHD) - Dyce (ABZ) BE154 2019-08-19 12:38:00
City (LCY) - Belfast City (BHD) BE1364 2019-08-18 20:50:00
St Jacques (RNS) - City (LCY) BE1317 2019-08-18 19:51:00
???? N/A 2019-08-18 15:51:00
Belfast City (BHD) - City (LCY) BE1357 2019-08-18 15:00:00
Manchester (MAN) - Belfast City (BHD) BE486 2019-08-17 19:10:00
Belfast City (BHD) - Manchester (MAN) BE485 2019-08-17 17:31:00
Dyce (ABZ) - Belfast City (BHD) BE153 2019-08-17 15:51:00
Belfast City (BHD) - Dyce (ABZ) BE154 2019-08-17 14:12:00
City (LCY) - Belfast City (BHD) BE1356 2019-08-17 12:34:00
Belfast City (BHD) - City (LCY) BE1355 2019-08-17 11:35:00
Manchester (MAN) - Belfast City (BHD) BE472 2019-08-17 08:24:00
Belfast City (BHD) - Manchester (MAN) BE471 2019-08-17 06:27:00
Leeds Bradford (LBA) - Belfast City (BHD) BE738 2019-08-16 20:24:00
Manchester (MAN) - Malpensa (MXP) BE1892 2019-08-16 19:06:00
Leeds Bradford (LBA) - Belfast City (BHD) BE736 2019-08-16 17:10:00
Time Lat Lon Altitude Heading Speed Vertical Rate
2019-07-22 06:46:39 GMT 52.651970 -1.902204 3,725 43 232 -720
2019-07-22 06:45:37 GMT 52.652527 -1.993524 3,875 20 208 -780
2019-07-22 06:45:26 GMT 52.632168 -1.998568 3,950 352 187 -1380
2019-07-22 06:45:15 GMT 52.632168 -1.998568 4,125 335 217 -900
2019-07-22 06:45:04 GMT 52.623112 -1.991145 4,350 333 170 -960
2019-07-22 06:44:53 GMT 52.615170 -1.984357 4,475 327 161 -420
2019-07-22 06:44:42 GMT 52.606728 -1.976860 4,675 333 204 -240
2019-07-22 06:44:32 GMT 52.599880 -1.969983 4,850 329 177 -240
2019-07-22 06:44:21 GMT 52.592155 -1.962186 4,875 328 242 -900
2019-07-22 06:44:10 GMT 52.584118 -1.953395 4,925 284 150 -1140
2019-07-22 06:43:39 GMT 52.579990 -1.918683 5,425 43 299 -1380
2019-07-22 06:42:40 GMT 52.637829 -1.933878 6,425 89 238 -1680
2019-07-22 06:42:30 GMT 52.644520 -1.945523 6,575 148 213 -240
2019-07-22 06:42:18 GMT 52.666016 -1.967222 6,800 147 183 -120
2019-07-22 06:42:07 GMT 52.674892 -1.979919 7,000 136 222 0
2019-07-22 06:41:57 GMT 52.674892 -1.979919 7,000 188 244 0
2019-07-22 06:41:44 GMT 52.689449 -1.976425 7,000 100 617 0
2019-07-22 06:41:34 GMT 52.690987 -2.013652 7,000 101 260 0
2019-07-22 06:41:24 GMT 52.693432 -2.032818 7,000 84 299 0
2019-07-22 06:41:12 GMT 52.690395 -2.057477 7,000 64 323 0
2019-07-22 06:41:01 GMT 52.682972 -2.073974 7,000 20 252 0
2019-07-22 06:40:33 GMT 52.653381 -2.085448 7,000 335 227 0
2019-07-22 06:40:23 GMT 52.644527 -2.076283 7,000 327 266 0
2019-07-22 06:40:12 GMT 52.636311 -2.065306 7,000 313 103 0
2019-07-22 06:40:01 GMT 52.627480 -2.053013 7,000 319 211 0
2019-07-22 06:39:50 GMT 52.618706 -2.040966 7,000 304 274 0
2019-07-22 06:39:39 GMT 52.610405 -2.028498 7,000 330 145 0
2019-07-22 06:39:28 GMT 52.602291 -2.017520 7,000 315 218 -120
2019-07-22 06:39:16 GMT 52.593391 -2.004151 7,000 318 198 -180
2019-07-22 06:39:06 GMT 52.586487 -1.994279 7,000 314 271 -600
2019-07-22 06:38:55 GMT 52.578091 -1.982329 7,025 319 201 -900
2019-07-22 06:38:43 GMT 52.569233 -1.970169 7,200 313 306 -660
2019-07-22 06:38:32 GMT 52.561069 -1.957478 7,350 316 256 -1080
2019-07-22 06:38:00 GMT 52.545719 -1.910411 7,900 227 256 -780
2019-07-22 06:37:41 GMT 52.560890 -1.883072 8,225 198 213 -1020
2019-07-22 06:37:31 GMT 52.570293 -1.878024 8,325 174 349 -1140
2019-07-22 06:37:20 GMT 52.582932 -1.880806 8,550 140 249 -600
2019-07-22 06:37:08 GMT 52.606014 -1.888777 8,725 83 256 -840
2019-07-22 06:36:55 GMT 52.604393 -1.914084 8,925 128 258 0
2019-07-22 06:36:44 GMT 52.612663 -1.930916 9,000 139 234 0
2019-07-22 06:36:31 GMT 52.623898 -1.945413 9,000 142 256 -60
2019-07-22 06:36:21 GMT 52.633358 -1.957201 9,000 142 278 -300
2019-07-22 06:36:11 GMT 52.643566 -1.970122 9,025 147 242 -360
2019-07-22 06:36:01 GMT 52.652721 -1.981310 9,050 142 259 -1920
2019-07-22 06:35:50 GMT 52.674194 -2.005517 9,175 148 283 0
2019-07-22 06:35:40 GMT 52.686161 -2.018447 9,400 144 265 -960
2019-07-22 06:35:29 GMT 52.686161 -2.018447 9,525 147 279 -660
2019-07-22 06:35:18 GMT 52.698181 -2.030748 9,700 146 264 -300
2019-07-22 06:35:08 GMT 52.708603 -2.042586 9,950 144 292 0
2019-07-22 06:34:57 GMT 52.720478 -2.055839 10,000 148 297 0
2019-07-22 06:34:44 GMT 52.735031 -2.073407 10,000 145 277 0
2019-07-22 06:34:33 GMT 52.753162 -2.082627 10,000 121 241 0
2019-07-22 06:34:21 GMT 52.760105 -2.101632 10,000 145 291 0
2019-07-22 06:34:09 GMT 52.773438 -2.116852 10,000 141 271 0
2019-07-22 06:33:57 GMT 52.784290 -2.133551 10,000 152 309 60
2019-07-22 06:33:47 GMT 52.807556 -2.153854 10,000 167 343 60
2019-07-22 06:33:37 GMT 52.807556 -2.153854 10,000 159 289 0
2019-07-22 06:33:24 GMT 52.823929 -2.163766 9,975 177 322 -60
2019-07-22 06:33:12 GMT 52.839382 -2.167071 10,000 160 277 0
2019-07-22 06:33:00 GMT 52.854012 -2.176469 10,000 170 297 0
2019-07-22 06:32:49 GMT 52.868004 -2.180907 10,000 162 266 0
2019-07-22 06:32:39 GMT 52.881290 -2.186402 10,000 169 311 0
2019-07-22 06:32:28 GMT 52.899277 -2.179189 10,000 136 289 0
2019-07-22 06:32:13 GMT 52.914108 -2.200386 10,000 160 256 0
2019-07-22 06:32:03 GMT 52.925312 -2.206852 10,000 171 303 0
2019-07-22 06:31:52 GMT 52.939182 -2.210629 10,000 160 276 0
2019-07-22 06:31:41 GMT 52.951916 -2.219132 10,000 164 282 -120
2019-07-22 06:31:31 GMT 52.965790 -2.222823 10,000 163 278 0
2019-07-22 06:31:20 GMT 52.979099 -2.230098 10,000 167 270 120
2019-07-22 06:31:10 GMT 52.989960 -2.234250 10,025 165 291 60
2019-07-22 06:30:59 GMT 53.004303 -2.240378 10,000 146 268 0
2019-07-22 06:30:48 GMT 53.029343 -2.252899 10,000 165 260 -60
2019-07-22 06:30:38 GMT 53.029343 -2.252899 10,000 163 261 -60
2019-07-22 06:30:28 GMT 53.040936 -2.258714 10,000 162 271 -60
2019-07-22 06:30:18 GMT 53.053631 -2.264532 10,025 163 283 -300
2019-07-22 06:30:07 GMT 53.066044 -2.270892 10,050 165 279 -900
2019-07-22 06:29:56 GMT 53.079624 -2.277593 10,075 163 260 -900
2019-07-22 06:29:46 GMT 53.092384 -2.282294 10,275 160 262 -900
2019-07-22 06:29:35 GMT 53.118916 -2.295029 10,475 162 286 -1500
2019-07-22 06:29:24 GMT 53.118916 -2.295029 10,600 158 257 -900
2019-07-22 06:29:14 GMT 53.130787 -2.301249 10,775 163 265 -1020
2019-07-22 06:29:02 GMT 53.145538 -2.308706 11,000 162 259 -720
2019-07-22 06:28:52 GMT 53.157009 -2.314705 11,125 162 249 -900
2019-07-22 06:28:41 GMT 53.169922 -2.321668 11,300 166 244 -1020
2019-07-22 06:28:30 GMT 53.196156 -2.334058 11,575 163 275 -600
2019-07-22 06:28:20 GMT 53.196156 -2.334058 11,750 161 272 -960
2019-07-22 06:28:07 GMT 53.226727 -2.348204 11,900 165 295 -2460
2019-07-22 06:27:57 GMT 53.226727 -2.348204 12,150 161 292 0
2019-07-22 06:27:47 GMT 53.240471 -2.353710 12,500 166 313 -3180
2019-07-22 06:27:37 GMT 53.254623 -2.361666 13,050 162 321 -1800
2019-07-22 06:27:27 GMT 53.269676 -2.369770 13,400 164 296 -1380
2019-07-22 06:27:13 GMT 53.289181 -2.378652 13,800 165 327 -2520
2019-07-22 06:27:02 GMT 53.304173 -2.385785 14,350 163 339 -9600
2019-07-22 06:26:51 GMT 53.320713 -2.394012 14,800 162 329 -3900
2019-07-22 06:26:39 GMT 53.356377 -2.412152 15,325 171 326 1200
2019-07-22 06:26:27 GMT 53.371170 -2.417147 15,975 169 326 -2100
2019-07-22 06:26:17 GMT 53.371170 -2.417147 16,350 183 302 -3420
2019-07-22 06:26:06 GMT 53.388233 -2.416727 16,925 184 302 -2160
2019-07-22 06:25:54 GMT 53.406265 -2.413731 17,500 181 323 -1740
2019-07-22 06:25:43 GMT 53.422729 -2.412819 18,000 184 315 -3840
2019-07-22 06:25:33 GMT 53.451790 -2.408928 18,625 185 315 -1860
2019-07-22 06:25:23 GMT 53.451790 -2.408928 19,050 180 317 -4560
2019-07-22 06:25:12 GMT 53.468086 -2.408023 19,775 186 307 -7380
2019-07-22 06:25:01 GMT 53.485226 -2.405159 20,275 183 350 -4500
2019-07-22 06:24:50 GMT 53.500523 -2.403843 21,150 185 288 -3180
2019-07-22 06:24:38 GMT 53.519001 -2.400992 21,800 181 294 -3660
2019-07-22 06:24:27 GMT 53.535076 -2.400607 22,475 184 245 -2880
2019-07-22 06:24:16 GMT 53.548157 -2.399531 23,350 172 327 -2880
2019-07-22 06:24:06 GMT 53.563160 -2.402944 23,725 156 298 -3000
2019-07-22 06:23:56 GMT 53.576775 -2.410877 24,475 157 294 -300
2019-07-22 06:23:45 GMT 53.590588 -2.420669 24,925 156 317 0
2019-07-22 06:23:35 GMT 53.602322 -2.431282 25,000 162 335 0
2019-07-22 06:23:24 GMT 53.618343 -2.441148 25,000 155 295 0
2019-07-22 06:23:14 GMT 53.633286 -2.449679 25,000 154 262 0
2019-07-22 06:23:03 GMT 53.648369 -2.461713 25,000 162 349 0
2019-07-22 06:22:53 GMT 53.663967 -2.470261 25,000 155 323 0
2019-07-22 06:22:42 GMT 53.678562 -2.480844 25,000 157 353 0
2019-07-22 06:22:32 GMT 53.696423 -2.487154 25,000 145 305 0
2019-07-22 06:22:21 GMT 53.709251 -2.501977 25,000 157 344 0
2019-07-22 06:22:10 GMT 53.724670 -2.513279 25,000 158 332 0
2019-07-22 06:22:00 GMT 53.740948 -2.523817 25,000 158 336 0
2019-07-22 06:21:49 GMT 53.755844 -2.533146 25,000 155 389 0
2019-07-22 06:21:38 GMT 53.772255 -2.546972 25,000 159 326 0
2019-07-22 06:21:28 GMT 53.785603 -2.555663 25,000 152 328 0
2019-07-22 06:21:18 GMT 53.802685 -2.565254 25,000 155 304 0
2019-07-22 06:21:07 GMT 53.819187 -2.577615 25,000 158 325 0
2019-07-22 06:20:57 GMT 53.832684 -2.586836 25,000 159 335 0
2019-07-22 06:20:46 GMT 53.846558 -2.597069 25,000 159 412 0
2019-07-22 06:20:36 GMT 53.864227 -2.607872 25,000 153 320 0
2019-07-22 06:20:25 GMT 53.879410 -2.619006 25,000 156 319 0
2019-07-22 06:20:15 GMT 53.892513 -2.628841 25,000 158 403 0
2019-07-22 06:20:05 GMT 53.908192 -2.639739 25,000 160 357 0
2019-07-22 06:19:54 GMT 53.925098 -2.651318 25,000 157 339 0
2019-07-22 06:19:44 GMT 53.939629 -2.659704 25,000 158 339 0
2019-07-22 06:19:33 GMT 53.955364 -2.671391 25,000 156 344 0
2019-07-22 06:19:23 GMT 53.970379 -2.681801 25,000 159 318 0
2019-07-22 06:19:12 GMT 53.985943 -2.692243 25,000 157 312 0
2019-07-22 06:19:02 GMT 53.999275 -2.701706 25,000 157 376 0
2019-07-22 06:18:51 GMT 54.015919 -2.712846 25,000 157 341 0
2019-07-22 06:18:40 GMT 54.032352 -2.724813 25,000 157 351 0
2019-07-22 06:18:30 GMT 54.062325 -2.745853 25,000 161 323 0
2019-07-22 06:18:19 GMT 54.062325 -2.745853 25,000 157 353 0
2019-07-22 06:18:07 GMT 54.079758 -2.757713 25,000 156 390 0
2019-07-22 06:17:55 GMT 54.097534 -2.770316 25,000 159 294 0
2019-07-22 06:17:44 GMT 54.113510 -2.783874 25,000 162 354 0
2019-07-22 06:17:32 GMT 54.132111 -2.794309 25,000 157 351 0
2019-07-22 06:17:21 GMT 54.146679 -2.805259 25,000 157 324 0
2019-07-22 06:17:10 GMT 54.163956 -2.816644 25,000 158 335 0
2019-07-22 06:17:00 GMT 54.178452 -2.826208 25,000 156 353 0
2019-07-22 06:16:50 GMT 54.193466 -2.837245 25,000 157 364 0
2019-07-22 06:16:40 GMT 54.209011 -2.848406 25,000 156 336 0
2019-07-22 06:16:30 GMT 54.239265 -2.871803 25,000 158 343 0
2019-07-22 06:16:20 GMT 54.239265 -2.871803 25,000 163 298 0
2019-07-22 06:16:08 GMT 54.271603 -2.892346 25,000 157 359 0
2019-07-22 06:15:58 GMT 54.271603 -2.892346 25,000 158 340 0
2019-07-22 06:15:48 GMT 54.286152 -2.901252 25,000 157 337 0
2019-07-22 06:15:38 GMT 54.300156 -2.911659 25,000 155 376 0
2019-07-22 06:15:27 GMT 54.316723 -2.923453 25,000 157 325 0
2019-07-22 06:15:17 GMT 54.331249 -2.934025 25,000 158 358 0
2019-07-22 06:15:05 GMT 54.367092 -2.959384 25,000 158 347 0
2019-07-22 06:14:53 GMT 54.367092 -2.959384 25,000 156 375 0
2019-07-22 06:14:43 GMT 54.381618 -2.970181 25,000 157 333 0
2019-07-22 06:14:32 GMT 54.399292 -2.982594 25,000 157 327 0
2019-07-22 06:14:21 GMT 54.415108 -2.993679 25,000 157 352 0
2019-07-22 06:14:10 GMT 54.431168 -3.005467 25,000 157 326 0
2019-07-22 06:13:59 GMT 54.447258 -3.016866 25,000 157 372 0
2019-07-22 06:13:47 GMT 54.465218 -3.030137 25,000 157 330 0
2019-07-22 06:13:36 GMT 54.479935 -3.040548 25,000 157 380 0
2019-07-22 06:13:26 GMT 54.496136 -3.052382 25,000 155 347 0
2019-07-22 06:13:14 GMT 54.513699 -3.066134 25,000 160 291 0
2019-07-22 06:13:03 GMT 54.528740 -3.076970 25,000 156 368 0
2019-07-22 06:12:53 GMT 54.544067 -3.087194 25,000 159 321 0
2019-07-22 06:12:42 GMT 54.558762 -3.095813 25,000 163 347 0
2019-07-22 06:12:32 GMT 54.574196 -3.103634 25,000 168 328 0
2019-07-22 06:12:21 GMT 54.591316 -3.109912 25,000 166 294 0
2019-07-22 06:12:10 GMT 54.606583 -3.115507 25,000 167 314 0
2019-07-22 06:12:00 GMT 54.620773 -3.120968 25,000 168 346 0
2019-07-22 06:11:48 GMT 54.639347 -3.127894 25,000 168 314 0
2019-07-22 06:11:38 GMT 54.653603 -3.132778 25,000 169 315 0
2019-07-22 06:11:27 GMT 54.669880 -3.138647 25,000 168 344 0
2019-07-22 06:11:17 GMT 54.685635 -3.143384 25,000 165 304 0
2019-07-22 06:11:07 GMT 54.698620 -3.149537 25,000 168 332 0
2019-07-22 06:10:57 GMT 54.713192 -3.154923 25,000 169 326 0
2019-07-22 06:10:47 GMT 54.728031 -3.159740 25,000 168 297 0
2019-07-22 06:10:37 GMT 54.742931 -3.165133 25,000 167 298 0
2019-07-22 06:10:27 GMT 54.756393 -3.170286 25,000 167 323 0
2019-07-22 06:10:17 GMT 54.770920 -3.175806 25,000 167 292 0
2019-07-22 06:10:03 GMT 54.789749 -3.182556 25,000 167 322 0
2019-07-22 06:09:53 GMT 54.818943 -3.193800 25,000 168 299 0
2019-07-22 06:09:42 GMT 54.818943 -3.193800 25,000 168 286 0
2019-07-22 06:09:31 GMT 54.832710 -3.198314 25,000 166 309 0
2019-07-22 06:09:20 GMT 54.847572 -3.204318 25,000 167 290 0
2019-07-22 06:09:10 GMT 54.860752 -3.209456 25,000 169 280 180
2019-07-22 06:08:59 GMT 54.874870 -3.213300 24,975 165 260 540
2019-07-22 06:08:49 GMT 54.887161 -3.218522 24,950 166 263 420
2019-07-22 06:08:37 GMT 54.901699 -3.224670 24,850 168 277 600
2019-07-22 06:08:26 GMT 54.914684 -3.228697 24,725 168 293 660
2019-07-22 06:08:14 GMT 54.930431 -3.235206 24,550 168 265 600
2019-07-22 06:08:04 GMT 54.954376 -3.244021 24,425 167 254 600
2019-07-22 06:07:54 GMT 54.954376 -3.244021 24,300 169 288 540
2019-07-22 06:07:44 GMT 54.967464 -3.248954 24,175 168 269 660
2019-07-22 06:07:33 GMT 54.980980 -3.253987 24,050 167 268 600
2019-07-22 06:07:22 GMT 54.993652 -3.258621 23,850 167 260 780
2019-07-22 06:07:11 GMT 55.006565 -3.263676 23,775 168 271 720
2019-07-22 06:07:01 GMT 55.018780 -3.268258 23,625 169 280 780
2019-07-22 06:06:50 GMT 55.032829 -3.272807 23,500 166 254 1020
2019-07-22 06:06:40 GMT 55.044086 -3.277343 23,300 165 299 840
2019-07-22 06:06:29 GMT 55.057571 -3.282813 23,125 169 260 900
2019-07-22 06:06:18 GMT 55.083233 -3.292745 22,900 167 268 1200
2019-07-22 06:06:08 GMT 55.083233 -3.292745 22,775 167 258 1140
2019-07-22 06:05:57 GMT 55.095673 -3.297370 22,500 166 294 1080
2019-07-22 06:05:47 GMT 55.123421 -3.308719 22,250 166 290 1260
2019-07-22 06:05:35 GMT 55.123421 -3.308719 22,025 169 257 600
2019-07-22 06:05:25 GMT 55.135136 -3.312646 21,950 167 268 660
2019-07-22 06:05:14 GMT 55.147823 -3.317417 21,775 168 266 1080
2019-07-22 06:05:04 GMT 55.160580 -3.321775 21,550 171 266 540
2019-07-22 06:04:54 GMT 55.172516 -3.324715 21,400 172 268 600
2019-07-22 06:04:44 GMT 55.184834 -3.327613 21,275 173 249 1020
2019-07-22 06:04:33 GMT 55.197388 -3.330143 21,125 173 276 2220
2019-07-22 06:04:23 GMT 55.210106 -3.332733 20,950 173 267 1800
2019-07-22 06:04:13 GMT 55.221531 -3.334855 20,800 173 247 -180
2019-07-22 06:04:02 GMT 55.236271 -3.338788 20,575 175 249 1620
2019-07-22 06:03:52 GMT 55.247124 -3.340081 20,425 173 280 1140
2019-07-22 06:03:42 GMT 55.260010 -3.342594 20,225 174 255 720
2019-07-22 06:03:32 GMT 55.271770 -3.345218 20,050 172 276 1140
2019-07-22 06:03:22 GMT 55.284466 -3.347995 19,875 175 262 1140
2019-07-22 06:03:11 GMT 55.297318 -3.350362 19,675 173 269 720
2019-07-22 06:03:00 GMT 55.311085 -3.353243 19,500 173 260 1200
2019-07-22 06:02:50 GMT 55.323723 -3.356013 19,325 173 266 900
2019-07-22 06:02:39 GMT 55.337147 -3.358443 19,200 175 256 780
2019-07-22 06:02:28 GMT 55.350689 -3.361321 19,000 173 248 720
2019-07-22 06:02:18 GMT 55.362118 -3.363514 18,875 173 272 540
2019-07-22 06:02:06 GMT 55.377140 -3.366741 18,725 173 265 720
2019-07-22 06:01:56 GMT 55.389565 -3.369324 18,625 173 275 600
2019-07-22 06:01:46 GMT 55.401768 -3.371462 18,475 171 259 1080
2019-07-22 06:01:36 GMT 55.466171 -3.385510 18,325 177 136
2019-07-22 06:00:52 GMT 55.466171 -3.385510 17,450 177 136

Making use of Plane Finder data

You are free to use the raw flight data, aircraft information and images provided in this report for your own purposes provided the data is correctly attributed to Plane Finder. We ask that you please credit Plane Finder and link to planefinder.net in close proximity to the content.

Optionally one of the following logos (no smaller then 150x24px) can be used and must link to planefinder.net

Embedding the Plane Finder map

You are welcome to embed the Plane Finder playback map on your website to offer visitors a more interactive experience. We suggest using the following HTML code:

<iframe src="//planefinder.net/data/report/BE1331-G-PRPK-7700-squawk-2019-07-22/map" width="800" height="600" seamless="seamless"></iframe>

Where our data comes from

Plane Finder has a global network of data feeds and antenna radars that receive data broadcast directly from aircraft. The primary technologies used are ADS-B and MLAT. We also show feeds from the FAA and a FLARM glider feed.

Click here to find out more about the Plane Finder network.

How we collect our data